sensor_id;sensor_type;location;lat;lon;timestamp;temperature;humidity
37998;DHT22;24079;51.824;4.682;2024-01-30T00:01:52;9.80;99.90
37998;DHT22;24079;51.824;4.682;2024-01-30T00:04:18;9.90;99.90
37998;DHT22;24079;51.824;4.682;2024-01-30T00:06:44;9.80;99.90
37998;DHT22;24079;51.824;4.682;2024-01-30T00:09:11;9.90;99.90
37998;DHT22;24079;51.824;4.682;2024-01-30T00:11:40;9.80;99.90
37998;DHT22;24079;51.824;4.682;2024-01-30T00:14:06;9.80;99.90
37998;DHT22;24079;51.824;4.682;2024-01-30T00:16:32;9.70;99.90
37998;DHT22;24079;51.824;4.682;2024-01-30T00:18:58;9.70;99.90
37998;DHT22;24079;51.824;4.682;2024-01-30T00:21:24;9.70;99.90
37998;DHT22;24079;51.824;4.682;2024-01-30T00:23:56;9.70;99.90
37998;DHT22;24079;51.824;4.682;2024-01-30T00:26:22;9.70;99.90
37998;DHT22;24079;51.824;4.682;2024-01-30T00:28:48;9.70;99.90
37998;DHT22;24079;51.824;4.682;2024-01-30T00:31:14;9.70;99.90
37998;DHT22;24079;51.824;4.682;2024-01-30T00:33:40;9.60;99.90
37998;DHT22;24079;51.824;4.682;2024-01-30T00:36:08;9.60;99.90
37998;DHT22;24079;51.824;4.682;2024-01-30T00:38:33;9.60;99.90
37998;DHT22;24079;51.824;4.682;2024-01-30T00:40:59;9.60;99.90
37998;DHT22;24079;51.824;4.682;2024-01-30T00:43:25;9.60;99.90
37998;DHT22;24079;51.824;4.682;2024-01-30T00:45:51;9.70;99.90
37998;DHT22;24079;51.824;4.682;2024-01-30T00:48:20;9.60;99.90
37998;DHT22;24079;51.824;4.682;2024-01-30T00:50:46;9.60;99.90
37998;DHT22;24079;51.824;4.682;2024-01-30T00:53:11;9.70;99.90
37998;DHT22;24079;51.824;4.682;2024-01-30T00:55:37;9.70;99.90
37998;DHT22;24079;51.824;4.682;2024-01-30T00:58:03;9.70;99.90
37998;DHT22;24079;51.824;4.682;2024-01-30T01:00:29;9.70;99.90
37998;DHT22;24079;51.824;4.682;2024-01-30T01:02:55;9.70;99.90
37998;DHT22;24079;51.824;4.682;2024-01-30T01:05:21;9.80;99.90
37998;DHT22;24079;51.824;4.682;2024-01-30T01:07:46;9.70;99.90
37998;DHT22;24079;51.824;4.682;2024-01-30T01:10:18;9.70;99.90
37998;DHT22;24079;51.824;4.682;2024-01-30T01:12:48;9.80;99.90
37998;DHT22;24079;51.824;4.682;2024-01-30T01:15:13;9.80;99.90
37998;DHT22;24079;51.824;4.682;2024-01-30T01:17:39;9.90;99.90
37998;DHT22;24079;51.824;4.682;2024-01-30T01:20:06;9.90;99.90
37998;DHT22;24079;51.824;4.682;2024-01-30T01:22:32;9.90;99.90
37998;DHT22;24079;51.824;4.682;2024-01-30T01:24:59;9.90;99.90
37998;DHT22;24079;51.824;4.682;2024-01-30T01:27:25;9.90;99.90
37998;DHT22;24079;51.824;4.682;2024-01-30T01:29:51;9.90;99.90
37998;DHT22;24079;51.824;4.682;2024-01-30T01:32:17;9.90;99.90
37998;DHT22;24079;51.824;4.682;2024-01-30T01:34:42;9.90;99.90
37998;DHT22;24079;51.824;4.682;2024-01-30T01:37:08;9.90;99.90
37998;DHT22;24079;51.824;4.682;2024-01-30T01:39:34;9.90;99.90
37998;DHT22;24079;51.824;4.682;2024-01-30T01:41:59;9.90;99.90
37998;DHT22;24079;51.824;4.682;2024-01-30T01:44:25;9.90;99.90
37998;DHT22;24079;51.824;4.682;2024-01-30T01:46:51;9.80;99.90
37998;DHT22;24079;51.824;4.682;2024-01-30T01:49:22;9.90;99.90
37998;DHT22;24079;51.824;4.682;2024-01-30T01:51:50;9.90;99.90
37998;DHT22;24079;51.824;4.682;2024-01-30T01:54:17;9.90;99.90
37998;DHT22;24079;51.824;4.682;2024-01-30T01:56:43;9.90;99.90
37998;DHT22;24079;51.824;4.682;2024-01-30T01:59:09;9.90;99.90
37998;DHT22;24079;51.824;4.682;2024-01-30T02:01:38;9.90;99.90
37998;DHT22;24079;51.824;4.682;2024-01-30T02:04:07;9.90;99.90
37998;DHT22;24079;51.824;4.682;2024-01-30T02:06:34;9.90;99.90
37998;DHT22;24079;51.824;4.682;2024-01-30T02:08:59;9.90;99.90
37998;DHT22;24079;51.824;4.682;2024-01-30T02:11:25;9.90;99.90
37998;DHT22;24079;51.824;4.682;2024-01-30T02:13:52;9.90;99.90
37998;DHT22;24079;51.824;4.682;2024-01-30T02:16:17;9.80;99.90
37998;DHT22;24079;51.824;4.682;2024-01-30T02:18:43;9.90;99.90
37998;DHT22;24079;51.824;4.682;2024-01-30T02:21:13;9.80;99.90
37998;DHT22;24079;51.824;4.682;2024-01-30T02:23:39;9.80;99.90
37998;DHT22;24079;51.824;4.682;2024-01-30T02:26:06;9.90;99.90
37998;DHT22;24079;51.824;4.682;2024-01-30T02:28:31;9.90;99.90
37998;DHT22;24079;51.824;4.682;2024-01-30T02:30:57;9.80;99.90
37998;DHT22;24079;51.824;4.682;2024-01-30T02:33:23;9.90;99.90
37998;DHT22;24079;51.824;4.682;2024-01-30T02:35:48;9.80;99.90
37998;DHT22;24079;51.824;4.682;2024-01-30T02:38:15;9.80;99.90
37998;DHT22;24079;51.824;4.682;2024-01-30T02:40:41;9.80;99.90
37998;DHT22;24079;51.824;4.682;2024-01-30T02:43:06;9.70;99.90
37998;DHT22;24079;51.824;4.682;2024-01-30T02:45:32;9.80;99.90
37998;DHT22;24079;51.824;4.682;2024-01-30T02:47:58;9.80;99.90
37998;DHT22;24079;51.824;4.682;2024-01-30T02:50:23;9.80;99.90
37998;DHT22;24079;51.824;4.682;2024-01-30T02:52:49;9.90;99.90
37998;DHT22;24079;51.824;4.682;2024-01-30T02:55:14;9.90;99.90
37998;DHT22;24079;51.824;4.682;2024-01-30T02:57:42;9.80;99.90
37998;DHT22;24079;51.824;4.682;2024-01-30T03:00:08;9.80;99.90
37998;DHT22;24079;51.824;4.682;2024-01-30T03:02:35;9.90;99.90
37998;DHT22;24079;51.824;4.682;2024-01-30T03:05:01;9.90;99.90
37998;DHT22;24079;51.824;4.682;2024-01-30T03:07:27;9.90;99.90
37998;DHT22;24079;51.824;4.682;2024-01-30T03:09:53;9.90;99.90
37998;DHT22;24079;51.824;4.682;2024-01-30T03:12:22;9.90;99.90
37998;DHT22;24079;51.824;4.682;2024-01-30T03:14:48;10.00;99.90
37998;DHT22;24079;51.824;4.682;2024-01-30T03:17:14;10.00;99.90
37998;DHT22;24079;51.824;4.682;2024-01-30T03:19:40;10.00;99.90
37998;DHT22;24079;51.824;4.682;2024-01-30T03:22:06;10.00;99.90
37998;DHT22;24079;51.824;4.682;2024-01-30T03:24:32;10.00;99.90
37998;DHT22;24079;51.824;4.682;2024-01-30T03:26:58;9.90;99.90
37998;DHT22;24079;51.824;4.682;2024-01-30T03:29:24;10.00;99.90
37998;DHT22;24079;51.824;4.682;2024-01-30T03:31:50;10.00;99.90
37998;DHT22;24079;51.824;4.682;2024-01-30T03:34:15;10.00;99.90
37998;DHT22;24079;51.824;4.682;2024-01-30T03:36:41;10.00;99.90
37998;DHT22;24079;51.824;4.682;2024-01-30T03:39:07;10.00;99.90
37998;DHT22;24079;51.824;4.682;2024-01-30T03:41:32;10.00;99.90
37998;DHT22;24079;51.824;4.682;2024-01-30T03:43:58;10.00;99.90
37998;DHT22;24079;51.824;4.682;2024-01-30T03:46:24;10.10;99.90
37998;DHT22;24079;51.824;4.682;2024-01-30T03:48:50;10.10;99.90
37998;DHT22;24079;51.824;4.682;2024-01-30T03:51:15;10.10;99.90
37998;DHT22;24079;51.824;4.682;2024-01-30T03:53:44;10.00;99.90
37998;DHT22;24079;51.824;4.682;2024-01-30T03:56:11;10.00;99.90
37998;DHT22;24079;51.824;4.682;2024-01-30T03:58:38;10.10;99.90
37998;DHT22;24079;51.824;4.682;2024-01-30T04:01:04;10.10;99.90
37998;DHT22;24079;51.824;4.682;2024-01-30T04:03:29;10.00;99.90
37998;DHT22;24079;51.824;4.682;2024-01-30T04:05:55;10.10;99.90
37998;DHT22;24079;51.824;4.682;2024-01-30T04:08:20;10.00;99.90
37998;DHT22;24079;51.824;4.682;2024-01-30T04:10:46;10.00;99.90
37998;DHT22;24079;51.824;4.682;2024-01-30T04:13:12;10.00;99.90
37998;DHT22;24079;51.824;4.682;2024-01-30T04:15:38;10.00;99.90
37998;DHT22;24079;51.824;4.682;2024-01-30T04:18:04;9.90;99.90
37998;DHT22;24079;51.824;4.682;2024-01-30T04:20:30;10.00;99.90
37998;DHT22;24079;51.824;4.682;2024-01-30T04:22:55;10.00;99.90
37998;DHT22;24079;51.824;4.682;2024-01-30T04:25:21;10.10;99.90
37998;DHT22;24079;51.824;4.682;2024-01-30T04:27:47;10.00;99.90
37998;DHT22;24079;51.824;4.682;2024-01-30T04:30:13;10.00;99.90
37998;DHT22;24079;51.824;4.682;2024-01-30T04:32:38;10.10;99.90
37998;DHT22;24079;51.824;4.682;2024-01-30T04:35:04;10.10;99.90
37998;DHT22;24079;51.824;4.682;2024-01-30T04:37:30;10.00;99.90
37998;DHT22;24079;51.824;4.682;2024-01-30T04:39:56;10.00;99.90
37998;DHT22;24079;51.824;4.682;2024-01-30T04:42:22;10.00;99.90
37998;DHT22;24079;51.824;4.682;2024-01-30T04:44:47;10.00;99.90
37998;DHT22;24079;51.824;4.682;2024-01-30T04:47:13;10.00;99.90
37998;DHT22;24079;51.824;4.682;2024-01-30T04:49:39;10.10;99.90
37998;DHT22;24079;51.824;4.682;2024-01-30T04:52:08;10.10;99.90
37998;DHT22;24079;51.824;4.682;2024-01-30T04:54:34;10.10;99.90
37998;DHT22;24079;51.824;4.682;2024-01-30T04:57:01;10.20;99.90
37998;DHT22;24079;51.824;4.682;2024-01-30T04:59:26;10.10;99.90
37998;DHT22;24079;51.824;4.682;2024-01-30T05:01:52;10.10;99.90
37998;DHT22;24079;51.824;4.682;2024-01-30T05:04:18;10.20;99.90
37998;DHT22;24079;51.824;4.682;2024-01-30T05:06:44;10.20;99.90
37998;DHT22;24079;51.824;4.682;2024-01-30T05:09:09;10.20;99.90
37998;DHT22;24079;51.824;4.682;2024-01-30T05:11:39;10.20;99.90
37998;DHT22;24079;51.824;4.682;2024-01-30T05:14:05;10.20;99.90
37998;DHT22;24079;51.824;4.682;2024-01-30T05:16:31;10.20;99.90
37998;DHT22;24079;51.824;4.682;2024-01-30T05:18:57;10.20;99.90
37998;DHT22;24079;51.824;4.682;2024-01-30T05:21:22;10.20;99.90
37998;DHT22;24079;51.824;4.682;2024-01-30T05:23:48;10.20;99.90
37998;DHT22;24079;51.824;4.682;2024-01-30T05:26:14;10.20;99.90
37998;DHT22;24079;51.824;4.682;2024-01-30T05:28:39;10.20;99.90
37998;DHT22;24079;51.824;4.682;2024-01-30T05:31:05;10.20;99.90
37998;DHT22;24079;51.824;4.682;2024-01-30T05:33:30;10.20;99.90
37998;DHT22;24079;51.824;4.682;2024-01-30T05:35:56;10.20;99.90
37998;DHT22;24079;51.824;4.682;2024-01-30T05:38:22;10.20;99.90
37998;DHT22;24079;51.824;4.682;2024-01-30T05:40:47;10.20;99.90
37998;DHT22;24079;51.824;4.682;2024-01-30T05:43:13;10.20;99.90
37998;DHT22;24079;51.824;4.682;2024-01-30T05:45:38;10.20;99.90
37998;DHT22;24079;51.824;4.682;2024-01-30T05:48:04;10.20;99.90
37998;DHT22;24079;51.824;4.682;2024-01-30T05:50:31;10.30;99.90
37998;DHT22;24079;51.824;4.682;2024-01-30T05:52:57;10.30;99.90
37998;DHT22;24079;51.824;4.682;2024-01-30T05:55:23;10.20;99.90
37998;DHT22;24079;51.824;4.682;2024-01-30T05:57:49;10.20;99.90
37998;DHT22;24079;51.824;4.682;2024-01-30T06:00:15;10.20;99.90
37998;DHT22;24079;51.824;4.682;2024-01-30T06:02:42;10.30;99.90
37998;DHT22;24079;51.824;4.682;2024-01-30T06:05:08;10.30;99.90
37998;DHT22;24079;51.824;4.682;2024-01-30T06:07:34;10.20;99.90
37998;DHT22;24079;51.824;4.682;2024-01-30T06:10:00;10.20;99.90
37998;DHT22;24079;51.824;4.682;2024-01-30T06:12:27;10.20;99.90
37998;DHT22;24079;51.824;4.682;2024-01-30T06:14:54;10.30;99.90
37998;DHT22;24079;51.824;4.682;2024-01-30T06:17:23;10.30;99.90
37998;DHT22;24079;51.824;4.682;2024-01-30T06:19:49;10.30;99.90
37998;DHT22;24079;51.824;4.682;2024-01-30T06:22:16;10.30;99.90
37998;DHT22;24079;51.824;4.682;2024-01-30T06:24:42;10.30;99.90
37998;DHT22;24079;51.824;4.682;2024-01-30T06:27:10;10.30;99.90
37998;DHT22;24079;51.824;4.682;2024-01-30T06:29:36;10.30;99.90
37998;DHT22;24079;51.824;4.682;2024-01-30T06:32:03;10.30;99.90
37998;DHT22;24079;51.824;4.682;2024-01-30T06:34:29;10.40;99.90
37998;DHT22;24079;51.824;4.682;2024-01-30T06:36:55;10.40;99.90
37998;DHT22;24079;51.824;4.682;2024-01-30T06:39:21;10.40;99.90
37998;DHT22;24079;51.824;4.682;2024-01-30T06:41:47;10.40;99.90
37998;DHT22;24079;51.824;4.682;2024-01-30T06:44:13;10.40;99.90
37998;DHT22;24079;51.824;4.682;2024-01-30T06:46:39;10.40;99.90
37998;DHT22;24079;51.824;4.682;2024-01-30T06:49:05;10.40;99.90
37998;DHT22;24079;51.824;4.682;2024-01-30T06:51:31;10.50;99.90
37998;DHT22;24079;51.824;4.682;2024-01-30T06:53:57;10.50;99.90
37998;DHT22;24079;51.824;4.682;2024-01-30T06:56:23;10.50;99.90
37998;DHT22;24079;51.824;4.682;2024-01-30T06:58:50;10.50;99.90
37998;DHT22;24079;51.824;4.682;2024-01-30T07:01:16;10.60;99.90
37998;DHT22;24079;51.824;4.682;2024-01-30T07:03:42;10.60;99.90
37998;DHT22;24079;51.824;4.682;2024-01-30T07:06:09;10.60;99.90
37998;DHT22;24079;51.824;4.682;2024-01-30T07:08:36;10.60;99.90
37998;DHT22;24079;51.824;4.682;2024-01-30T07:11:02;10.70;99.90
37998;DHT22;24079;51.824;4.682;2024-01-30T07:13:28;10.70;99.90
37998;DHT22;24079;51.824;4.682;2024-01-30T07:15:54;10.70;99.90
37998;DHT22;24079;51.824;4.682;2024-01-30T07:18:19;10.70;99.90
37998;DHT22;24079;51.824;4.682;2024-01-30T07:20:45;10.80;99.90
37998;DHT22;24079;51.824;4.682;2024-01-30T07:23:13;10.70;99.90
37998;DHT22;24079;51.824;4.682;2024-01-30T07:25:42;10.70;99.90
37998;DHT22;24079;51.824;4.682;2024-01-30T07:28:08;10.80;99.90
37998;DHT22;24079;51.824;4.682;2024-01-30T07:30:38;10.80;99.90
37998;DHT22;24079;51.824;4.682;2024-01-30T07:33:04;10.90;99.90
37998;DHT22;24079;51.824;4.682;2024-01-30T07:35:29;10.90;99.90
37998;DHT22;24079;51.824;4.682;2024-01-30T07:37:55;10.90;99.90
37998;DHT22;24079;51.824;4.682;2024-01-30T07:40:22;11.00;99.90
37998;DHT22;24079;51.824;4.682;2024-01-30T07:42:49;11.00;99.90
37998;DHT22;24079;51.824;4.682;2024-01-30T07:45:14;11.10;99.90
37998;DHT22;24079;51.824;4.682;2024-01-30T07:47:40;11.10;99.90
37998;DHT22;24079;51.824;4.682;2024-01-30T07:50:06;11.10;99.90
37998;DHT22;24079;51.824;4.682;2024-01-30T07:52:32;11.10;99.90
37998;DHT22;24079;51.824;4.682;2024-01-30T07:54:57;11.20;99.90
37998;DHT22;24079;51.824;4.682;2024-01-30T07:57:23;11.10;99.90
37998;DHT22;24079;51.824;4.682;2024-01-30T07:59:49;11.20;99.90
37998;DHT22;24079;51.824;4.682;2024-01-30T08:02:15;11.20;99.90
37998;DHT22;24079;51.824;4.682;2024-01-30T08:04:40;11.30;99.90
37998;DHT22;24079;51.824;4.682;2024-01-30T08:07:06;11.30;99.90
37998;DHT22;24079;51.824;4.682;2024-01-30T08:09:32;11.30;99.90
37998;DHT22;24079;51.824;4.682;2024-01-30T08:11:59;11.30;99.90
37998;DHT22;24079;51.824;4.682;2024-01-30T08:14:24;11.30;99.90
37998;DHT22;24079;51.824;4.682;2024-01-30T08:16:51;11.40;99.90
37998;DHT22;24079;51.824;4.682;2024-01-30T08:19:16;11.50;99.90
37998;DHT22;24079;51.824;4.682;2024-01-30T08:21:42;11.50;99.90
37998;DHT22;24079;51.824;4.682;2024-01-30T08:24:08;11.50;99.90
37998;DHT22;24079;51.824;4.682;2024-01-30T08:26:34;11.50;99.90
37998;DHT22;24079;51.824;4.682;2024-01-30T08:29:01;11.60;99.90
37998;DHT22;24079;51.824;4.682;2024-01-30T08:31:26;11.60;99.90
37998;DHT22;24079;51.824;4.682;2024-01-30T08:33:52;11.60;99.90
37998;DHT22;24079;51.824;4.682;2024-01-30T08:36:19;11.60;99.90
37998;DHT22;24079;51.824;4.682;2024-01-30T08:38:45;11.70;99.90
37998;DHT22;24079;51.824;4.682;2024-01-30T08:41:11;11.70;99.90
37998;DHT22;24079;51.824;4.682;2024-01-30T08:43:36;11.70;99.90
37998;DHT22;24079;51.824;4.682;2024-01-30T08:46:02;11.70;99.90
37998;DHT22;24079;51.824;4.682;2024-01-30T08:48:29;11.70;99.90
37998;DHT22;24079;51.824;4.682;2024-01-30T08:50:54;11.70;99.90
37998;DHT22;24079;51.824;4.682;2024-01-30T08:53:20;11.70;99.90
37998;DHT22;24079;51.824;4.682;2024-01-30T08:55:45;11.70;99.90
37998;DHT22;24079;51.824;4.682;2024-01-30T08:58:11;11.70;99.90
37998;DHT22;24079;51.824;4.682;2024-01-30T09:00:37;11.70;99.90
37998;DHT22;24079;51.824;4.682;2024-01-30T09:03:03;11.70;99.90
37998;DHT22;24079;51.824;4.682;2024-01-30T09:05:29;11.80;99.90
37998;DHT22;24079;51.824;4.682;2024-01-30T09:07:55;11.80;99.90
37998;DHT22;24079;51.824;4.682;2024-01-30T09:10:21;11.80;99.90
37998;DHT22;24079;51.824;4.682;2024-01-30T09:12:47;11.80;99.90
37998;DHT22;24079;51.824;4.682;2024-01-30T09:15:13;11.80;99.90
37998;DHT22;24079;51.824;4.682;2024-01-30T09:17:39;11.90;99.90
37998;DHT22;24079;51.824;4.682;2024-01-30T09:20:05;11.90;99.90
37998;DHT22;24079;51.824;4.682;2024-01-30T09:22:31;11.90;99.90
37998;DHT22;24079;51.824;4.682;2024-01-30T09:24:57;11.90;99.90
37998;DHT22;24079;51.824;4.682;2024-01-30T09:27:23;11.80;99.90
37998;DHT22;24079;51.824;4.682;2024-01-30T09:29:48;11.90;99.90
37998;DHT22;24079;51.824;4.682;2024-01-30T09:32:14;11.90;99.90
37998;DHT22;24079;51.824;4.682;2024-01-30T09:34:40;11.90;99.90
37998;DHT22;24079;51.824;4.682;2024-01-30T09:37:07;11.90;99.90
37998;DHT22;24079;51.824;4.682;2024-01-30T09:39:32;12.00;99.90
37998;DHT22;24079;51.824;4.682;2024-01-30T09:42:37;12.00;99.90
37998;DHT22;24079;51.824;4.682;2024-01-30T09:45:04;12.10;99.90
37998;DHT22;24079;51.824;4.682;2024-01-30T09:47:43;12.10;99.90
37998;DHT22;24079;51.824;4.682;2024-01-30T09:50:11;12.20;99.90
37998;DHT22;24079;51.824;4.682;2024-01-30T09:52:36;12.20;99.90
37998;DHT22;24079;51.824;4.682;2024-01-30T09:55:04;12.10;99.90
37998;DHT22;24079;51.824;4.682;2024-01-30T09:57:30;12.20;99.90
37998;DHT22;24079;51.824;4.682;2024-01-30T09:59:55;12.20;99.90
37998;DHT22;24079;51.824;4.682;2024-01-30T10:02:21;12.10;99.90
37998;DHT22;24079;51.824;4.682;2024-01-30T10:04:48;12.20;99.90
37998;DHT22;24079;51.824;4.682;2024-01-30T10:07:15;12.20;99.90
37998;DHT22;24079;51.824;4.682;2024-01-30T10:09:41;12.20;99.90
37998;DHT22;24079;51.824;4.682;2024-01-30T10:12:08;12.30;99.90
37998;DHT22;24079;51.824;4.682;2024-01-30T10:14:40;12.40;99.90
37998;DHT22;24079;51.824;4.682;2024-01-30T10:17:10;12.50;99.90
37998;DHT22;24079;51.824;4.682;2024-01-30T10:19:37;12.50;99.90
37998;DHT22;24079;51.824;4.682;2024-01-30T10:22:04;12.50;99.90
37998;DHT22;24079;51.824;4.682;2024-01-30T10:24:29;12.50;99.90
37998;DHT22;24079;51.824;4.682;2024-01-30T10:26:55;12.30;99.90
37998;DHT22;24079;51.824;4.682;2024-01-30T10:29:21;12.20;99.90
37998;DHT22;24079;51.824;4.682;2024-01-30T10:32:00;12.20;99.90
37998;DHT22;24079;51.824;4.682;2024-01-30T10:34:26;12.00;99.90
37998;DHT22;24079;51.824;4.682;2024-01-30T10:37:07;12.00;99.90
37998;DHT22;24079;51.824;4.682;2024-01-30T10:39:38;11.80;99.90
37998;DHT22;24079;51.824;4.682;2024-01-30T10:42:05;11.70;99.90
37998;DHT22;24079;51.824;4.682;2024-01-30T10:47:26;11.60;99.90
37998;DHT22;24079;51.824;4.682;2024-01-30T10:49:52;11.40;99.90
37998;DHT22;24079;51.824;4.682;2024-01-30T10:52:20;11.30;99.90
37998;DHT22;24079;51.824;4.682;2024-01-30T10:54:46;11.30;99.90
37998;DHT22;24079;51.824;4.682;2024-01-30T10:57:13;11.30;99.90
37998;DHT22;24079;51.824;4.682;2024-01-30T10:59:41;11.20;99.90
37998;DHT22;24079;51.824;4.682;2024-01-30T11:02:07;11.20;99.90
37998;DHT22;24079;51.824;4.682;2024-01-30T11:04:38;11.10;99.90
37998;DHT22;24079;51.824;4.682;2024-01-30T11:07:27;11.10;99.90
37998;DHT22;24079;51.824;4.682;2024-01-30T11:09:59;11.10;99.90
37998;DHT22;24079;51.824;4.682;2024-01-30T11:12:33;11.00;99.90
37998;DHT22;24079;51.824;4.682;2024-01-30T11:15:12;11.10;99.90
37998;DHT22;24079;51.824;4.682;2024-01-30T11:20:30;11.20;99.90
37998;DHT22;24079;51.824;4.682;2024-01-30T11:23:01;11.30;99.90
37998;DHT22;24079;51.824;4.682;2024-01-30T11:25:32;11.20;99.90
37998;DHT22;24079;51.824;4.682;2024-01-30T11:27:58;11.10;99.90
37998;DHT22;24079;51.824;4.682;2024-01-30T11:30:27;11.10;99.90
37998;DHT22;24079;51.824;4.682;2024-01-30T11:33:04;10.90;99.90
37998;DHT22;24079;51.824;4.682;2024-01-30T11:35:32;10.90;99.90
37998;DHT22;24079;51.824;4.682;2024-01-30T11:37:59;10.80;99.90
37998;DHT22;24079;51.824;4.682;2024-01-30T11:40:30;10.70;99.90
37998;DHT22;24079;51.824;4.682;2024-01-30T11:42:58;10.70;99.90
37998;DHT22;24079;51.824;4.682;2024-01-30T11:45:24;10.60;99.90
37998;DHT22;24079;51.824;4.682;2024-01-30T11:47:49;10.50;99.90
37998;DHT22;24079;51.824;4.682;2024-01-30T11:50:15;10.50;99.90
37998;DHT22;24079;51.824;4.682;2024-01-30T11:52:41;10.40;99.90
37998;DHT22;24079;51.824;4.682;2024-01-30T11:55:09;10.30;99.90
37998;DHT22;24079;51.824;4.682;2024-01-30T11:57:35;10.30;99.90
37998;DHT22;24079;51.824;4.682;2024-01-30T12:00:02;10.20;99.90
37998;DHT22;24079;51.824;4.682;2024-01-30T12:02:30;10.20;99.90
37998;DHT22;24079;51.824;4.682;2024-01-30T12:04:55;10.10;99.90
37998;DHT22;24079;51.824;4.682;2024-01-30T12:07:21;10.10;99.90
37998;DHT22;24079;51.824;4.682;2024-01-30T12:09:53;10.00;99.90
37998;DHT22;24079;51.824;4.682;2024-01-30T12:12:22;10.10;99.90
37998;DHT22;24079;51.824;4.682;2024-01-30T12:14:49;10.00;99.90
37998;DHT22;24079;51.824;4.682;2024-01-30T12:17:33;10.10;99.90
37998;DHT22;24079;51.824;4.682;2024-01-30T12:20:19;10.00;99.90
37998;DHT22;24079;51.824;4.682;2024-01-30T12:22:49;10.00;99.90
37998;DHT22;24079;51.824;4.682;2024-01-30T12:25:16;10.00;99.90
37998;DHT22;24079;51.824;4.682;2024-01-30T12:27:43;10.00;99.90
37998;DHT22;24079;51.824;4.682;2024-01-30T12:30:10;10.10;99.90
37998;DHT22;24079;51.824;4.682;2024-01-30T12:32:38;10.10;99.90
37998;DHT22;24079;51.824;4.682;2024-01-30T12:35:07;10.10;99.90
37998;DHT22;24079;51.824;4.682;2024-01-30T12:37:34;10.10;99.90
37998;DHT22;24079;51.824;4.682;2024-01-30T12:40:00;10.10;99.90
37998;DHT22;24079;51.824;4.682;2024-01-30T12:42:27;10.00;99.90
37998;DHT22;24079;51.824;4.682;2024-01-30T12:44:53;10.00;99.90
37998;DHT22;24079;51.824;4.682;2024-01-30T12:47:18;10.00;99.90
37998;DHT22;24079;51.824;4.682;2024-01-30T12:49:46;9.90;99.90
37998;DHT22;24079;51.824;4.682;2024-01-30T12:52:14;9.90;99.90
37998;DHT22;24079;51.824;4.682;2024-01-30T12:54:40;9.90;99.90
37998;DHT22;24079;51.824;4.682;2024-01-30T12:57:06;9.90;99.90
37998;DHT22;24079;51.824;4.682;2024-01-30T12:59:31;10.00;99.90
37998;DHT22;24079;51.824;4.682;2024-01-30T13:01:59;10.00;99.90
37998;DHT22;24079;51.824;4.682;2024-01-30T13:04:25;10.00;99.90
37998;DHT22;24079;51.824;4.682;2024-01-30T13:06:51;10.00;99.90
37998;DHT22;24079;51.824;4.682;2024-01-30T13:09:16;10.00;99.90
37998;DHT22;24079;51.824;4.682;2024-01-30T13:11:42;10.00;99.90
37998;DHT22;24079;51.824;4.682;2024-01-30T13:14:07;10.00;99.90
37998;DHT22;24079;51.824;4.682;2024-01-30T13:16:33;10.00;99.90
37998;DHT22;24079;51.824;4.682;2024-01-30T13:18:59;10.00;99.90
37998;DHT22;24079;51.824;4.682;2024-01-30T13:21:26;10.00;99.90
37998;DHT22;24079;51.824;4.682;2024-01-30T13:23:51;10.00;99.90
37998;DHT22;24079;51.824;4.682;2024-01-30T13:26:20;9.90;99.90
37998;DHT22;24079;51.824;4.682;2024-01-30T13:28:46;9.90;99.90
37998;DHT22;24079;51.824;4.682;2024-01-30T13:31:12;9.90;99.90
37998;DHT22;24079;51.824;4.682;2024-01-30T13:33:38;9.80;99.90
37998;DHT22;24079;51.824;4.682;2024-01-30T13:36:04;9.80;99.90
37998;DHT22;24079;51.824;4.682;2024-01-30T13:38:29;9.80;99.90
37998;DHT22;24079;51.824;4.682;2024-01-30T13:40:55;9.80;99.90
37998;DHT22;24079;51.824;4.682;2024-01-30T13:43:20;9.70;99.90
37998;DHT22;24079;51.824;4.682;2024-01-30T13:45:46;9.70;99.90
37998;DHT22;24079;51.824;4.682;2024-01-30T13:48:12;9.60;99.90
37998;DHT22;24079;51.824;4.682;2024-01-30T13:50:37;9.60;99.90
37998;DHT22;24079;51.824;4.682;2024-01-30T13:53:03;9.50;99.90
37998;DHT22;24079;51.824;4.682;2024-01-30T13:55:29;9.40;99.90
37998;DHT22;24079;51.824;4.682;2024-01-30T13:57:55;9.50;99.90
37998;DHT22;24079;51.824;4.682;2024-01-30T14:00:22;9.40;99.90
37998;DHT22;24079;51.824;4.682;2024-01-30T14:02:48;9.40;99.90
37998;DHT22;24079;51.824;4.682;2024-01-30T14:05:14;9.40;99.90
37998;DHT22;24079;51.824;4.682;2024-01-30T14:07:40;9.30;99.90
37998;DHT22;24079;51.824;4.682;2024-01-30T14:10:12;9.30;99.90
37998;DHT22;24079;51.824;4.682;2024-01-30T14:12:37;9.30;99.90
37998;DHT22;24079;51.824;4.682;2024-01-30T14:15:03;9.30;99.90
37998;DHT22;24079;51.824;4.682;2024-01-30T14:17:29;9.20;99.90
37998;DHT22;24079;51.824;4.682;2024-01-30T14:19:54;9.20;99.90
37998;DHT22;24079;51.824;4.682;2024-01-30T14:22:20;9.30;99.90
37998;DHT22;24079;51.824;4.682;2024-01-30T14:24:45;9.20;99.90
37998;DHT22;24079;51.824;4.682;2024-01-30T14:27:11;9.30;99.90
37998;DHT22;24079;51.824;4.682;2024-01-30T14:29:37;9.30;99.90
37998;DHT22;24079;51.824;4.682;2024-01-30T14:32:03;9.30;99.90
37998;DHT22;24079;51.824;4.682;2024-01-30T14:34:29;9.20;99.90
37998;DHT22;24079;51.824;4.682;2024-01-30T14:36:55;9.20;99.90
37998;DHT22;24079;51.824;4.682;2024-01-30T14:39:21;9.30;99.90
37998;DHT22;24079;51.824;4.682;2024-01-30T14:41:47;9.30;99.90
37998;DHT22;24079;51.824;4.682;2024-01-30T14:44:13;9.20;99.90
37998;DHT22;24079;51.824;4.682;2024-01-30T14:46:39;9.20;99.90
37998;DHT22;24079;51.824;4.682;2024-01-30T14:49:05;9.20;99.90
37998;DHT22;24079;51.824;4.682;2024-01-30T14:51:32;9.20;99.90
37998;DHT22;24079;51.824;4.682;2024-01-30T14:53:59;9.20;99.90
37998;DHT22;24079;51.824;4.682;2024-01-30T14:56:25;9.10;99.90
37998;DHT22;24079;51.824;4.682;2024-01-30T14:58:51;9.20;99.90
37998;DHT22;24079;51.824;4.682;2024-01-30T15:01:16;9.20;99.90
37998;DHT22;24079;51.824;4.682;2024-01-30T15:03:42;9.10;99.90
37998;DHT22;24079;51.824;4.682;2024-01-30T15:06:08;9.10;99.90
37998;DHT22;24079;51.824;4.682;2024-01-30T15:08:34;9.00;99.90
37998;DHT22;24079;51.824;4.682;2024-01-30T15:11:00;9.00;99.90
37998;DHT22;24079;51.824;4.682;2024-01-30T15:13:26;9.00;99.90
37998;DHT22;24079;51.824;4.682;2024-01-30T15:15:51;9.00;99.90
37998;DHT22;24079;51.824;4.682;2024-01-30T15:18:17;8.90;99.90
37998;DHT22;24079;51.824;4.682;2024-01-30T15:20:43;8.90;99.90
37998;DHT22;24079;51.824;4.682;2024-01-30T15:23:08;8.80;99.90
37998;DHT22;24079;51.824;4.682;2024-01-30T15:25:34;8.90;99.90
37998;DHT22;24079;51.824;4.682;2024-01-30T15:27:59;8.90;99.90
37998;DHT22;24079;51.824;4.682;2024-01-30T15:30:25;8.80;99.90
37998;DHT22;24079;51.824;4.682;2024-01-30T15:32:50;8.80;99.90
37998;DHT22;24079;51.824;4.682;2024-01-30T15:35:16;8.70;99.90
37998;DHT22;24079;51.824;4.682;2024-01-30T15:37:42;8.80;99.90
37998;DHT22;24079;51.824;4.682;2024-01-30T15:40:08;8.70;99.90